sensor_id;sensor_type;location;lat;lon;timestamp;temperature;humidity
2767;DHT22;1391;46.742;11.636;2022-07-25T00:01:57;19.20;98.10
2767;DHT22;1391;46.742;11.636;2022-07-25T00:04:24;18.60;99.20
2767;DHT22;1391;46.742;11.636;2022-07-25T00:06:52;18.60;98.10
2767;DHT22;1391;46.742;11.636;2022-07-25T00:09:20;19.00;98.40
2767;DHT22;1391;46.742;11.636;2022-07-25T00:11:47;19.00;98.00
2767;DHT22;1391;46.742;11.636;2022-07-25T00:14:14;19.00;99.40
2767;DHT22;1391;46.742;11.636;2022-07-25T00:16:42;18.50;98.20
2767;DHT22;1391;46.742;11.636;2022-07-25T00:19:09;18.50;98.00
2767;DHT22;1391;46.742;11.636;2022-07-25T00:21:36;19.30;98.30
2767;DHT22;1391;46.742;11.636;2022-07-25T00:24:04;18.60;99.20
2767;DHT22;1391;46.742;11.636;2022-07-25T00:26:33;18.50;99.90
2767;DHT22;1391;46.742;11.636;2022-07-25T00:29:00;18.40;99.90
2767;DHT22;1391;46.742;11.636;2022-07-25T00:31:27;18.50;99.90
2767;DHT22;1391;46.742;11.636;2022-07-25T00:33:54;18.60;99.90
2767;DHT22;1391;46.742;11.636;2022-07-25T00:36:21;18.70;99.90
2767;DHT22;1391;46.742;11.636;2022-07-25T00:38:49;18.50;99.90
2767;DHT22;1391;46.742;11.636;2022-07-25T00:41:16;18.40;99.90
2767;DHT22;1391;46.742;11.636;2022-07-25T00:43:45;18.60;99.90
2767;DHT22;1391;46.742;11.636;2022-07-25T00:46:13;18.50;99.90
2767;DHT22;1391;46.742;11.636;2022-07-25T00:48:41;18.50;99.90
2767;DHT22;1391;46.742;11.636;2022-07-25T00:51:09;18.50;99.90
2767;DHT22;1391;46.742;11.636;2022-07-25T00:53:37;18.50;99.90
2767;DHT22;1391;46.742;11.636;2022-07-25T00:56:05;18.50;99.90
2767;DHT22;1391;46.742;11.636;2022-07-25T00:58:33;18.50;99.90
2767;DHT22;1391;46.742;11.636;2022-07-25T01:01:03;18.50;99.90
2767;DHT22;1391;46.742;11.636;2022-07-25T01:03:31;18.50;99.90
2767;DHT22;1391;46.742;11.636;2022-07-25T01:05:58;18.50;99.90
2767;DHT22;1391;46.742;11.636;2022-07-25T01:08:25;18.50;99.90
2767;DHT22;1391;46.742;11.636;2022-07-25T01:10:52;18.40;99.90
2767;DHT22;1391;46.742;11.636;2022-07-25T01:13:20;18.50;99.90
2767;DHT22;1391;46.742;11.636;2022-07-25T01:15:47;18.50;99.90
2767;DHT22;1391;46.742;11.636;2022-07-25T01:18:16;18.50;99.90
2767;DHT22;1391;46.742;11.636;2022-07-25T01:20:45;18.50;99.90
2767;DHT22;1391;46.742;11.636;2022-07-25T01:23:12;18.50;99.90
2767;DHT22;1391;46.742;11.636;2022-07-25T01:25:39;18.40;99.90
2767;DHT22;1391;46.742;11.636;2022-07-25T01:28:06;18.60;99.90
2767;DHT22;1391;46.742;11.636;2022-07-25T01:30:34;18.50;99.90
2767;DHT22;1391;46.742;11.636;2022-07-25T01:33:01;18.50;99.90
2767;DHT22;1391;46.742;11.636;2022-07-25T01:35:28;18.40;99.90
2767;DHT22;1391;46.742;11.636;2022-07-25T01:37:57;18.70;99.90
2767;DHT22;1391;46.742;11.636;2022-07-25T01:40:24;18.30;99.90
2767;DHT22;1391;46.742;11.636;2022-07-25T01:42:51;18.00;99.90
2767;DHT22;1391;46.742;11.636;2022-07-25T01:45:18;18.00;99.90
2767;DHT22;1391;46.742;11.636;2022-07-25T01:47:46;18.00;99.90
2767;DHT22;1391;46.742;11.636;2022-07-25T01:50:13;18.00;99.90
2767;DHT22;1391;46.742;11.636;2022-07-25T01:52:40;17.90;99.90
2767;DHT22;1391;46.742;11.636;2022-07-25T01:55:10;17.90;99.90
2767;DHT22;1391;46.742;11.636;2022-07-25T01:57:39;17.90;99.90
2767;DHT22;1391;46.742;11.636;2022-07-25T02:00:09;17.90;99.90
2767;DHT22;1391;46.742;11.636;2022-07-25T02:02:37;17.90;99.90
2767;DHT22;1391;46.742;11.636;2022-07-25T02:05:06;18.00;99.90
2767;DHT22;1391;46.742;11.636;2022-07-25T02:07:34;18.00;99.90
2767;DHT22;1391;46.742;11.636;2022-07-25T02:10:02;17.90;99.90
2767;DHT22;1391;46.742;11.636;2022-07-25T02:12:31;17.90;99.90
2767;DHT22;1391;46.742;11.636;2022-07-25T02:14:59;18.00;99.90
2767;DHT22;1391;46.742;11.636;2022-07-25T02:17:26;17.90;99.90
2767;DHT22;1391;46.742;11.636;2022-07-25T02:19:54;17.90;99.90
2767;DHT22;1391;46.742;11.636;2022-07-25T02:22:21;18.00;99.90
2767;DHT22;1391;46.742;11.636;2022-07-25T02:24:48;18.00;99.90
2767;DHT22;1391;46.742;11.636;2022-07-25T02:27:15;17.90;99.90
2767;DHT22;1391;46.742;11.636;2022-07-25T02:29:44;17.90;99.90
2767;DHT22;1391;46.742;11.636;2022-07-25T02:32:11;17.90;99.90
2767;DHT22;1391;46.742;11.636;2022-07-25T02:34:38;17.90;99.90
2767;DHT22;1391;46.742;11.636;2022-07-25T02:37:05;17.90;99.90
2767;DHT22;1391;46.742;11.636;2022-07-25T02:39:32;17.50;99.90
2767;DHT22;1391;46.742;11.636;2022-07-25T02:42:00;17.80;99.90
2767;DHT22;1391;46.742;11.636;2022-07-25T02:44:27;18.00;99.90
2767;DHT22;1391;46.742;11.636;2022-07-25T02:46:55;17.90;99.90
2767;DHT22;1391;46.742;11.636;2022-07-25T02:49:22;17.90;99.90
2767;DHT22;1391;46.742;11.636;2022-07-25T02:51:50;17.80;99.90
2767;DHT22;1391;46.742;11.636;2022-07-25T02:54:17;17.60;99.90
2767;DHT22;1391;46.742;11.636;2022-07-25T02:56:44;17.70;99.90
2767;DHT22;1391;46.742;11.636;2022-07-25T02:59:11;17.80;99.90
2767;DHT22;1391;46.742;11.636;2022-07-25T03:01:39;18.00;99.90
2767;DHT22;1391;46.742;11.636;2022-07-25T03:04:07;17.90;99.90
2767;DHT22;1391;46.742;11.636;2022-07-25T03:06:34;17.90;99.90
2767;DHT22;1391;46.742;11.636;2022-07-25T03:09:02;17.90;99.90
2767;DHT22;1391;46.742;11.636;2022-07-25T03:11:30;17.50;99.90
2767;DHT22;1391;46.742;11.636;2022-07-25T03:13:58;17.40;99.90
2767;DHT22;1391;46.742;11.636;2022-07-25T03:16:25;17.60;99.90
2767;DHT22;1391;46.742;11.636;2022-07-25T03:18:52;17.40;99.90
2767;DHT22;1391;46.742;11.636;2022-07-25T03:21:21;17.60;99.90
2767;DHT22;1391;46.742;11.636;2022-07-25T03:23:48;17.30;99.90
2767;DHT22;1391;46.742;11.636;2022-07-25T03:26:15;17.90;99.90
2767;DHT22;1391;46.742;11.636;2022-07-25T03:28:42;17.80;99.90
2767;DHT22;1391;46.742;11.636;2022-07-25T03:31:10;18.00;99.90
2767;DHT22;1391;46.742;11.636;2022-07-25T03:33:37;18.10;99.90
2767;DHT22;1391;46.742;11.636;2022-07-25T03:36:05;17.80;99.90
2767;DHT22;1391;46.742;11.636;2022-07-25T03:38:36;18.00;99.90
2767;DHT22;1391;46.742;11.636;2022-07-25T03:41:04;17.90;99.90
2767;DHT22;1391;46.742;11.636;2022-07-25T03:43:31;17.80;99.90
2767;DHT22;1391;46.742;11.636;2022-07-25T03:45:58;17.20;99.90
2767;DHT22;1391;46.742;11.636;2022-07-25T03:48:26;17.20;99.90
2767;DHT22;1391;46.742;11.636;2022-07-25T03:50:54;18.00;99.90
2767;DHT22;1391;46.742;11.636;2022-07-25T03:53:21;17.90;99.90
2767;DHT22;1391;46.742;11.636;2022-07-25T03:55:50;17.80;99.90
2767;DHT22;1391;46.742;11.636;2022-07-25T03:58:17;17.20;99.90
2767;DHT22;1391;46.742;11.636;2022-07-25T04:00:45;17.50;99.90
2767;DHT22;1391;46.742;11.636;2022-07-25T04:03:13;17.40;99.90
2767;DHT22;1391;46.742;11.636;2022-07-25T04:05:41;17.20;99.90
2767;DHT22;1391;46.742;11.636;2022-07-25T04:08:08;17.10;99.90
2767;DHT22;1391;46.742;11.636;2022-07-25T04:10:35;17.50;99.90
2767;DHT22;1391;46.742;11.636;2022-07-25T04:13:04;17.40;99.90
2767;DHT22;1391;46.742;11.636;2022-07-25T04:15:31;17.30;99.90
2767;DHT22;1391;46.742;11.636;2022-07-25T04:17:58;17.40;99.90
2767;DHT22;1391;46.742;11.636;2022-07-25T04:20:26;17.60;99.90
2767;DHT22;1391;46.742;11.636;2022-07-25T04:22:53;17.30;99.90
2767;DHT22;1391;46.742;11.636;2022-07-25T04:25:20;17.80;99.90
2767;DHT22;1391;46.742;11.636;2022-07-25T04:27:47;18.00;99.90
2767;DHT22;1391;46.742;11.636;2022-07-25T04:30:16;17.90;99.90
2767;DHT22;1391;46.742;11.636;2022-07-25T04:32:43;17.90;99.90
2767;DHT22;1391;46.742;11.636;2022-07-25T04:35:10;17.90;99.90
2767;DHT22;1391;46.742;11.636;2022-07-25T04:37:38;18.00;99.90
2767;DHT22;1391;46.742;11.636;2022-07-25T04:40:05;18.00;99.90
2767;DHT22;1391;46.742;11.636;2022-07-25T04:42:35;18.00;99.90
2767;DHT22;1391;46.742;11.636;2022-07-25T04:45:02;18.00;99.90
2767;DHT22;1391;46.742;11.636;2022-07-25T04:47:31;18.00;99.90
2767;DHT22;1391;46.742;11.636;2022-07-25T04:49:58;18.40;99.90
2767;DHT22;1391;46.742;11.636;2022-07-25T04:52:26;18.60;99.90
2767;DHT22;1391;46.742;11.636;2022-07-25T04:54:53;18.50;99.90
2767;DHT22;1391;46.742;11.636;2022-07-25T04:57:20;18.50;99.90
2767;DHT22;1391;46.742;11.636;2022-07-25T04:59:47;18.50;99.90
2767;DHT22;1391;46.742;11.636;2022-07-25T05:02:15;18.50;99.90
2767;DHT22;1391;46.742;11.636;2022-07-25T05:04:43;18.50;99.90
2767;DHT22;1391;46.742;11.636;2022-07-25T05:07:10;18.50;99.90
2767;DHT22;1391;46.742;11.636;2022-07-25T05:09:38;19.00;99.90
2767;DHT22;1391;46.742;11.636;2022-07-25T05:12:06;18.90;99.90
2767;DHT22;1391;46.742;11.636;2022-07-25T05:14:33;19.10;99.90
2767;DHT22;1391;46.742;11.636;2022-07-25T05:17:00;19.10;99.90
2767;DHT22;1391;46.742;11.636;2022-07-25T05:19:28;19.20;99.90
2767;DHT22;1391;46.742;11.636;2022-07-25T05:21:56;19.10;99.90
2767;DHT22;1391;46.742;11.636;2022-07-25T05:24:24;19.10;99.90
2767;DHT22;1391;46.742;11.636;2022-07-25T05:26:51;19.10;99.90
2767;DHT22;1391;46.742;11.636;2022-07-25T05:29:18;19.20;99.90
2767;DHT22;1391;46.742;11.636;2022-07-25T05:31:46;19.60;99.90
2767;DHT22;1391;46.742;11.636;2022-07-25T05:34:13;20.00;98.40
2767;DHT22;1391;46.742;11.636;2022-07-25T05:36:40;19.70;98.60
2767;DHT22;1391;46.742;11.636;2022-07-25T05:39:08;19.70;97.90
2767;DHT22;1391;46.742;11.636;2022-07-25T05:41:36;19.60;97.60
2767;DHT22;1391;46.742;11.636;2022-07-25T05:44:03;19.80;95.00
2767;DHT22;1391;46.742;11.636;2022-07-25T05:46:31;19.80;93.40
2767;DHT22;1391;46.742;11.636;2022-07-25T05:48:58;20.30;93.80
2767;DHT22;1391;46.742;11.636;2022-07-25T05:51:26;20.50;95.60
2767;DHT22;1391;46.742;11.636;2022-07-25T05:53:53;20.50;94.80
2767;DHT22;1391;46.742;11.636;2022-07-25T05:56:22;20.30;94.70
2767;DHT22;1391;46.742;11.636;2022-07-25T05:58:49;20.50;95.00
2767;DHT22;1391;46.742;11.636;2022-07-25T06:01:16;20.40;93.40
2767;DHT22;1391;46.742;11.636;2022-07-25T06:03:43;20.40;91.50
2767;DHT22;1391;46.742;11.636;2022-07-25T06:06:11;20.30;90.80
2767;DHT22;1391;46.742;11.636;2022-07-25T06:08:38;20.60;90.70
2767;DHT22;1391;46.742;11.636;2022-07-25T06:11:06;20.40;90.60
2767;DHT22;1391;46.742;11.636;2022-07-25T06:13:35;20.40;91.10
2767;DHT22;1391;46.742;11.636;2022-07-25T06:16:02;20.40;89.40
2767;DHT22;1391;46.742;11.636;2022-07-25T06:18:30;20.40;89.70
2767;DHT22;1391;46.742;11.636;2022-07-25T06:20:57;20.90;90.90
2767;DHT22;1391;46.742;11.636;2022-07-25T06:23:25;21.10;87.70
2767;DHT22;1391;46.742;11.636;2022-07-25T06:25:52;21.00;86.20
2767;DHT22;1391;46.742;11.636;2022-07-25T06:28:19;21.00;84.60
2767;DHT22;1391;46.742;11.636;2022-07-25T06:30:48;21.10;86.50
2767;DHT22;1391;46.742;11.636;2022-07-25T06:33:15;21.00;86.00
2767;DHT22;1391;46.742;11.636;2022-07-25T06:35:42;21.20;86.00
2767;DHT22;1391;46.742;11.636;2022-07-25T06:38:09;20.90;84.00
2767;DHT22;1391;46.742;11.636;2022-07-25T06:40:36;21.00;83.90
2767;DHT22;1391;46.742;11.636;2022-07-25T06:43:03;21.50;84.30
2767;DHT22;1391;46.742;11.636;2022-07-25T06:45:31;22.00;83.80
2767;DHT22;1391;46.742;11.636;2022-07-25T06:47:59;22.00;82.60
2767;DHT22;1391;46.742;11.636;2022-07-25T06:50:27;21.90;82.40
2767;DHT22;1391;46.742;11.636;2022-07-25T06:52:54;22.00;80.30
2767;DHT22;1391;46.742;11.636;2022-07-25T06:55:21;21.90;80.60
2767;DHT22;1391;46.742;11.636;2022-07-25T06:57:48;22.10;77.70
2767;DHT22;1391;46.742;11.636;2022-07-25T07:00:16;22.00;76.00
2767;DHT22;1391;46.742;11.636;2022-07-25T07:02:51;21.90;75.90
2767;DHT22;1391;46.742;11.636;2022-07-25T07:05:22;22.60;76.00
2767;DHT22;1391;46.742;11.636;2022-07-25T07:07:50;22.50;76.90
2767;DHT22;1391;46.742;11.636;2022-07-25T07:10:17;22.60;76.00
2767;DHT22;1391;46.742;11.636;2022-07-25T07:12:45;22.50;77.40
2767;DHT22;1391;46.742;11.636;2022-07-25T07:15:13;22.70;76.80
2767;DHT22;1391;46.742;11.636;2022-07-25T07:17:41;22.70;74.20
2767;DHT22;1391;46.742;11.636;2022-07-25T07:20:09;22.80;73.30
2767;DHT22;1391;46.742;11.636;2022-07-25T07:22:45;23.40;71.70
2767;DHT22;1391;46.742;11.636;2022-07-25T07:25:13;23.40;68.70
2767;DHT22;1391;46.742;11.636;2022-07-25T07:27:42;23.60;69.60
2767;DHT22;1391;46.742;11.636;2022-07-25T07:30:10;23.70;66.50
2767;DHT22;1391;46.742;11.636;2022-07-25T07:32:39;24.20;64.00
2767;DHT22;1391;46.742;11.636;2022-07-25T07:35:07;24.40;64.60
2767;DHT22;1391;46.742;11.636;2022-07-25T07:37:35;24.30;61.50
2767;DHT22;1391;46.742;11.636;2022-07-25T07:40:05;24.30;61.50
2767;DHT22;1391;46.742;11.636;2022-07-25T07:42:38;24.40;61.80
2767;DHT22;1391;46.742;11.636;2022-07-25T07:45:14;25.00;60.60
2767;DHT22;1391;46.742;11.636;2022-07-25T07:47:43;25.30;57.50
2767;DHT22;1391;46.742;11.636;2022-07-25T07:50:13;25.30;60.50
2767;DHT22;1391;46.742;11.636;2022-07-25T07:52:41;25.40;57.20
2767;DHT22;1391;46.742;11.636;2022-07-25T07:55:11;25.10;57.80
2767;DHT22;1391;46.742;11.636;2022-07-25T07:57:56;25.30;56.40
2767;DHT22;1391;46.742;11.636;2022-07-25T08:00:25;25.30;55.80
2767;DHT22;1391;46.742;11.636;2022-07-25T08:02:55;26.00;58.60
2767;DHT22;1391;46.742;11.636;2022-07-25T08:05:26;25.40;55.00
2767;DHT22;1391;46.742;11.636;2022-07-25T08:07:54;26.20;58.50
2767;DHT22;1391;46.742;11.636;2022-07-25T08:10:26;27.10;53.00
2767;DHT22;1391;46.742;11.636;2022-07-25T08:12:54;27.10;52.30
2767;DHT22;1391;46.742;11.636;2022-07-25T08:15:22;27.20;49.10
2767;DHT22;1391;46.742;11.636;2022-07-25T08:17:50;27.30;56.40
2767;DHT22;1391;46.742;11.636;2022-07-25T08:20:18;27.30;49.40
2767;DHT22;1391;46.742;11.636;2022-07-25T08:22:49;27.20;48.10
2767;DHT22;1391;46.742;11.636;2022-07-25T08:25:17;27.40;49.10
2767;DHT22;1391;46.742;11.636;2022-07-25T08:27:48;27.60;47.00
2767;DHT22;1391;46.742;11.636;2022-07-25T08:30:17;28.40;45.20
2767;DHT22;1391;46.742;11.636;2022-07-25T08:32:48;28.20;46.20
2767;DHT22;1391;46.742;11.636;2022-07-25T08:35:17;27.50;46.20
2767;DHT22;1391;46.742;11.636;2022-07-25T08:37:45;28.10;47.20
2767;DHT22;1391;46.742;11.636;2022-07-25T08:40:14;28.00;49.70
2767;DHT22;1391;46.742;11.636;2022-07-25T08:42:42;28.20;45.90
2767;DHT22;1391;46.742;11.636;2022-07-25T08:45:12;29.50;44.20
2767;DHT22;1391;46.742;11.636;2022-07-25T08:47:41;28.60;43.70
2767;DHT22;1391;46.742;11.636;2022-07-25T08:50:10;28.50;43.70
2767;DHT22;1391;46.742;11.636;2022-07-25T08:52:39;28.70;44.00
2767;DHT22;1391;46.742;11.636;2022-07-25T08:55:10;29.50;43.70
2767;DHT22;1391;46.742;11.636;2022-07-25T08:57:40;29.50;39.80
2767;DHT22;1391;46.742;11.636;2022-07-25T09:00:12;29.20;40.60
2767;DHT22;1391;46.742;11.636;2022-07-25T09:02:42;29.30;41.30
2767;DHT22;1391;46.742;11.636;2022-07-25T09:05:09;29.30;42.10
2767;DHT22;1391;46.742;11.636;2022-07-25T09:07:37;30.00;39.90
2767;DHT22;1391;46.742;11.636;2022-07-25T09:10:13;30.20;36.20
2767;DHT22;1391;46.742;11.636;2022-07-25T09:12:49;29.90;34.40
2767;DHT22;1391;46.742;11.636;2022-07-25T09:15:24;30.10;37.90
2767;DHT22;1391;46.742;11.636;2022-07-25T09:17:53;30.20;37.50
2767;DHT22;1391;46.742;11.636;2022-07-25T09:20:21;31.10;37.80
2767;DHT22;1391;46.742;11.636;2022-07-25T09:22:49;31.10;32.80
2767;DHT22;1391;46.742;11.636;2022-07-25T09:25:20;30.10;34.60
2767;DHT22;1391;46.742;11.636;2022-07-25T09:27:48;29.50;34.40
2767;DHT22;1391;46.742;11.636;2022-07-25T09:30:16;30.30;31.70
2767;DHT22;1391;46.742;11.636;2022-07-25T09:32:45;30.10;40.90
2767;DHT22;1391;46.742;11.636;2022-07-25T09:35:13;30.30;39.80
2767;DHT22;1391;46.742;11.636;2022-07-25T09:37:40;31.90;31.20
2767;DHT22;1391;46.742;11.636;2022-07-25T09:40:12;32.00;32.40
2767;DHT22;1391;46.742;11.636;2022-07-25T09:42:40;30.90;35.50
2767;DHT22;1391;46.742;11.636;2022-07-25T09:45:12;30.90;32.50
2767;DHT22;1391;46.742;11.636;2022-07-25T09:47:52;31.50;32.10
2767;DHT22;1391;46.742;11.636;2022-07-25T09:50:21;31.90;31.20
2767;DHT22;1391;46.742;11.636;2022-07-25T09:52:50;32.20;36.70
2767;DHT22;1391;46.742;11.636;2022-07-25T09:55:18;31.80;35.30
2767;DHT22;1391;46.742;11.636;2022-07-25T09:57:47;30.70;33.40
2767;DHT22;1391;46.742;11.636;2022-07-25T10:00:18;31.00;33.20
2767;DHT22;1391;46.742;11.636;2022-07-25T10:02:49;31.70;32.10
2767;DHT22;1391;46.742;11.636;2022-07-25T10:05:29;30.60;31.20
2767;DHT22;1391;46.742;11.636;2022-07-25T10:08:05;31.00;32.00
2767;DHT22;1391;46.742;11.636;2022-07-25T10:10:37;31.60;30.70
2767;DHT22;1391;46.742;11.636;2022-07-25T10:13:07;31.70;29.70
2767;DHT22;1391;46.742;11.636;2022-07-25T10:15:41;31.80;32.70
2767;DHT22;1391;46.742;11.636;2022-07-25T10:18:12;32.00;32.00
2767;DHT22;1391;46.742;11.636;2022-07-25T10:20:40;31.80;28.70
2767;DHT22;1391;46.742;11.636;2022-07-25T10:23:19;31.80;31.00
2767;DHT22;1391;46.742;11.636;2022-07-25T10:26:06;32.70;27.80
2767;DHT22;1391;46.742;11.636;2022-07-25T10:28:41;32.60;31.80
2767;DHT22;1391;46.742;11.636;2022-07-25T10:31:23;32.90;30.90
2767;DHT22;1391;46.742;11.636;2022-07-25T10:33:55;32.70;27.20
2767;DHT22;1391;46.742;11.636;2022-07-25T10:36:25;32.50;28.40
2767;DHT22;1391;46.742;11.636;2022-07-25T10:38:56;33.10;28.90
2767;DHT22;1391;46.742;11.636;2022-07-25T10:41:26;34.50;25.90
2767;DHT22;1391;46.742;11.636;2022-07-25T10:43:59;34.20;26.20
2767;DHT22;1391;46.742;11.636;2022-07-25T10:46:28;33.60;25.40
2767;DHT22;1391;46.742;11.636;2022-07-25T10:49:00;34.00;25.70
2767;DHT22;1391;46.742;11.636;2022-07-25T10:51:31;32.90;27.30
2767;DHT22;1391;46.742;11.636;2022-07-25T10:54:10;33.40;25.20
2767;DHT22;1391;46.742;11.636;2022-07-25T10:56:50;34.20;26.00
2767;DHT22;1391;46.742;11.636;2022-07-25T10:59:30;34.20;24.40
2767;DHT22;1391;46.742;11.636;2022-07-25T11:01:59;34.60;25.00
2767;DHT22;1391;46.742;11.636;2022-07-25T11:04:28;33.40;26.40
2767;DHT22;1391;46.742;11.636;2022-07-25T11:06:56;33.40;26.20
2767;DHT22;1391;46.742;11.636;2022-07-25T11:09:25;33.30;25.70
2767;DHT22;1391;46.742;11.636;2022-07-25T11:11:54;33.30;26.20
2767;DHT22;1391;46.742;11.636;2022-07-25T11:14:24;33.40;24.00
2767;DHT22;1391;46.742;11.636;2022-07-25T11:16:55;34.40;25.70
2767;DHT22;1391;46.742;11.636;2022-07-25T11:19:24;33.70;23.60
2767;DHT22;1391;46.742;11.636;2022-07-25T11:21:55;33.20;24.40
2767;DHT22;1391;46.742;11.636;2022-07-25T11:24:34;33.50;25.90
2767;DHT22;1391;46.742;11.636;2022-07-25T11:27:02;33.10;26.10
2767;DHT22;1391;46.742;11.636;2022-07-25T11:29:29;32.60;26.00
2767;DHT22;1391;46.742;11.636;2022-07-25T11:32:00;32.70;32.20
2767;DHT22;1391;46.742;11.636;2022-07-25T11:34:30;32.10;26.70
2767;DHT22;1391;46.742;11.636;2022-07-25T11:37:01;31.80;26.80
2767;DHT22;1391;46.742;11.636;2022-07-25T11:39:31;32.80;25.60
2767;DHT22;1391;46.742;11.636;2022-07-25T11:42:04;33.10;24.80
2767;DHT22;1391;46.742;11.636;2022-07-25T11:44:35;34.30;23.90
2767;DHT22;1391;46.742;11.636;2022-07-25T11:47:05;33.70;24.60
2767;DHT22;1391;46.742;11.636;2022-07-25T11:49:43;33.30;22.70
2767;DHT22;1391;46.742;11.636;2022-07-25T11:52:20;33.50;23.60
2767;DHT22;1391;46.742;11.636;2022-07-25T11:54:55;33.00;24.00
2767;DHT22;1391;46.742;11.636;2022-07-25T11:57:27;33.10;25.80
2767;DHT22;1391;46.742;11.636;2022-07-25T11:59:57;32.80;25.40
2767;DHT22;1391;46.742;11.636;2022-07-25T12:02:28;32.90;25.70
2767;DHT22;1391;46.742;11.636;2022-07-25T12:04:57;32.50;25.50
2767;DHT22;1391;46.742;11.636;2022-07-25T12:07:41;32.70;24.60
2767;DHT22;1391;46.742;11.636;2022-07-25T12:10:12;32.60;24.50
2767;DHT22;1391;46.742;11.636;2022-07-25T12:12:48;32.70;24.00
2767;DHT22;1391;46.742;11.636;2022-07-25T12:15:18;32.70;24.10
2767;DHT22;1391;46.742;11.636;2022-07-25T12:17:48;33.60;23.00
2767;DHT22;1391;46.742;11.636;2022-07-25T12:20:18;33.90;22.20
2767;DHT22;1391;46.742;11.636;2022-07-25T12:22:48;34.00;21.00
2767;DHT22;1391;46.742;11.636;2022-07-25T12:25:16;33.30;21.80
2767;DHT22;1391;46.742;11.636;2022-07-25T12:27:44;33.00;21.80
2767;DHT22;1391;46.742;11.636;2022-07-25T12:30:13;33.30;21.90
2767;DHT22;1391;46.742;11.636;2022-07-25T12:32:41;34.20;21.10
2767;DHT22;1391;46.742;11.636;2022-07-25T12:35:10;33.50;21.20
2767;DHT22;1391;46.742;11.636;2022-07-25T12:37:40;34.60;22.00
2767;DHT22;1391;46.742;11.636;2022-07-25T12:40:10;34.60;19.70
2767;DHT22;1391;46.742;11.636;2022-07-25T12:42:39;34.50;19.90
2767;DHT22;1391;46.742;11.636;2022-07-25T12:45:07;34.30;19.90
2767;DHT22;1391;46.742;11.636;2022-07-25T12:47:35;34.10;19.30
2767;DHT22;1391;46.742;11.636;2022-07-25T12:50:03;34.30;19.50
2767;DHT22;1391;46.742;11.636;2022-07-25T12:52:31;34.60;19.70
2767;DHT22;1391;46.742;11.636;2022-07-25T12:54:58;34.70;19.20
2767;DHT22;1391;46.742;11.636;2022-07-25T12:57:27;35.00;18.20
2767;DHT22;1391;46.742;11.636;2022-07-25T12:59:56;34.50;18.00
2767;DHT22;1391;46.742;11.636;2022-07-25T13:02:23;34.30;17.30
2767;DHT22;1391;46.742;11.636;2022-07-25T13:04:50;34.80;17.60
2767;DHT22;1391;46.742;11.636;2022-07-25T13:07:17;34.90;16.70
2767;DHT22;1391;46.742;11.636;2022-07-25T13:09:45;34.90;16.60
2767;DHT22;1391;46.742;11.636;2022-07-25T13:12:12;34.90;15.70
2767;DHT22;1391;46.742;11.636;2022-07-25T13:14:40;35.30;15.70
2767;DHT22;1391;46.742;11.636;2022-07-25T13:17:09;34.80;15.50
2767;DHT22;1391;46.742;11.636;2022-07-25T13:19:37;34.90;14.70
2767;DHT22;1391;46.742;11.636;2022-07-25T13:22:04;34.70;14.80
2767;DHT22;1391;46.742;11.636;2022-07-25T13:24:32;34.80;15.10
2767;DHT22;1391;46.742;11.636;2022-07-25T13:27:01;34.90;15.00
2767;DHT22;1391;46.742;11.636;2022-07-25T13:29:29;34.50;16.60
2767;DHT22;1391;46.742;11.636;2022-07-25T13:31:57;34.40;17.00
2767;DHT22;1391;46.742;11.636;2022-07-25T13:34:24;34.70;14.80
2767;DHT22;1391;46.742;11.636;2022-07-25T13:36:52;33.50;15.90
2767;DHT22;1391;46.742;11.636;2022-07-25T13:39:19;33.40;16.40
2767;DHT22;1391;46.742;11.636;2022-07-25T13:41:47;33.50;29.90
2767;DHT22;1391;46.742;11.636;2022-07-25T13:44:14;33.30;19.70
2767;DHT22;1391;46.742;11.636;2022-07-25T13:46:42;34.30;17.60
2767;DHT22;1391;46.742;11.636;2022-07-25T13:49:11;34.60;15.70
2767;DHT22;1391;46.742;11.636;2022-07-25T13:51:38;34.60;16.60
2767;DHT22;1391;46.742;11.636;2022-07-25T13:54:05;34.60;15.60
2767;DHT22;1391;46.742;11.636;2022-07-25T13:56:33;34.50;16.00
2767;DHT22;1391;46.742;11.636;2022-07-25T13:59:01;33.60;15.50
2767;DHT22;1391;46.742;11.636;2022-07-25T14:01:29;33.30;17.80
2767;DHT22;1391;46.742;11.636;2022-07-25T14:03:56;33.10;18.90
2767;DHT22;1391;46.742;11.636;2022-07-25T14:06:25;33.00;21.10
2767;DHT22;1391;46.742;11.636;2022-07-25T14:08:52;33.30;22.00
2767;DHT22;1391;46.742;11.636;2022-07-25T14:11:19;33.20;24.90
2767;DHT22;1391;46.742;11.636;2022-07-25T14:13:46;33.00;20.80
2767;DHT22;1391;46.742;11.636;2022-07-25T14:16:14;32.70;20.40
2767;DHT22;1391;46.742;11.636;2022-07-25T14:18:43;32.80;21.20
2767;DHT22;1391;46.742;11.636;2022-07-25T14:21:11;32.70;20.70
2767;DHT22;1391;46.742;11.636;2022-07-25T14:23:39;32.80;22.00
2767;DHT22;1391;46.742;11.636;2022-07-25T14:26:06;32.70;22.40
2767;DHT22;1391;46.742;11.636;2022-07-25T14:28:34;32.60;25.80
2767;DHT22;1391;46.742;11.636;2022-07-25T14:31:01;32.00;23.30
2767;DHT22;1391;46.742;11.636;2022-07-25T14:33:28;32.00;22.40
2767;DHT22;1391;46.742;11.636;2022-07-25T14:35:55;32.40;25.10
2767;DHT22;1391;46.742;11.636;2022-07-25T14:38:23;32.70;25.90
2767;DHT22;1391;46.742;11.636;2022-07-25T14:40:51;32.70;25.50
2767;DHT22;1391;46.742;11.636;2022-07-25T14:43:18;32.70;23.40
2767;DHT22;1391;46.742;11.636;2022-07-25T14:45:46;32.70;22.30
2767;DHT22;1391;46.742;11.636;2022-07-25T14:48:13;32.80;23.10
2767;DHT22;1391;46.742;11.636;2022-07-25T14:50:40;33.30;22.20
2767;DHT22;1391;46.742;11.636;2022-07-25T14:53:07;33.00;22.30
2767;DHT22;1391;46.742;11.636;2022-07-25T14:55:35;33.00;23.20
2767;DHT22;1391;46.742;11.636;2022-07-25T14:58:04;33.10;21.80
2767;DHT22;1391;46.742;11.636;2022-07-25T15:00:31;32.80;21.30
2767;DHT22;1391;46.742;11.636;2022-07-25T15:03:00;33.00;20.80
2767;DHT22;1391;46.742;11.636;2022-07-25T15:05:29;33.30;20.30
2767;DHT22;1391;46.742;11.636;2022-07-25T15:07:56;33.00;19.60
2767;DHT22;1391;46.742;11.636;2022-07-25T15:10:23;33.20;19.30
2767;DHT22;1391;46.742;11.636;2022-07-25T15:12:50;33.50;19.40
2767;DHT22;1391;46.742;11.636;2022-07-25T15:15:19;33.30;19.30
2767;DHT22;1391;46.742;11.636;2022-07-25T15:17:46;33.10;20.20
2767;DHT22;1391;46.742;11.636;2022-07-25T15:20:13;33.20;19.90
2767;DHT22;1391;46.742;11.636;2022-07-25T15:22:41;32.80;19.60
2767;DHT22;1391;46.742;11.636;2022-07-25T15:25:08;32.80;19.90
2767;DHT22;1391;46.742;11.636;2022-07-25T15:27:36;33.10;20.20
2767;DHT22;1391;46.742;11.636;2022-07-25T15:30:06;32.70;20.30
2767;DHT22;1391;46.742;11.636;2022-07-25T15:32:37;32.60;21.70
2767;DHT22;1391;46.742;11.636;2022-07-25T15:35:05;32.90;21.00
2767;DHT22;1391;46.742;11.636;2022-07-25T15:37:34;32.60;21.90
2767;DHT22;1391;46.742;11.636;2022-07-25T15:40:02;32.50;20.60
2767;DHT22;1391;46.742;11.636;2022-07-25T15:42:30;32.20;21.40
2767;DHT22;1391;46.742;11.636;2022-07-25T15:44:58;31.90;20.90
2767;DHT22;1391;46.742;11.636;2022-07-25T15:47:25;31.90;23.00
2767;DHT22;1391;46.742;11.636;2022-07-25T15:49:54;31.90;29.00
2767;DHT22;1391;46.742;11.636;2022-07-25T15:52:21;31.90;33.90
2767;DHT22;1391;46.742;11.636;2022-07-25T15:54:55;31.80;36.10